Time;durP1;ratioP1;P1;durP2;ratioP2;P2;SDS_P1;SDS_P2;PMS_P1;PMS_P2;Temp;Humidity;BMP_temperature;BMP_pressure;BME280_temperature;BME280_humidity;BME280_pressure;Samples;Min_cycle;Max_cycle;Signal;HPM_P1;HPM_P2
2023/10/18 00:00:34;;;;;;;10.45;6.82;;;8.40;84.50;;;;;;5015349;28;20030;-77
2023/10/18 00:03:01;;;;;;;10.88;6.50;;;8.40;84.50;;;;;;5021368;28;20060;-77
2023/10/18 00:05:28;;;;;;;10.80;6.22;;;8.30;84.60;;;;;;5020123;28;20058;-76
2023/10/18 00:07:56;;;;;;;11.57;7.10;;;8.30;84.70;;;;;;5020598;28;20025;-74
2023/10/18 00:10:23;;;;;;;9.70;6.15;;;8.30;84.80;;;;;;5018626;28;20103;-75
2023/10/18 00:12:52;;;;;;;10.52;7.15;;;8.30;84.90;;;;;;5024182;28;20032;-75
2023/10/18 00:15:18;;;;;;;10.70;6.35;;;8.30;84.90;;;;;;5019282;28;20034;-75
2023/10/18 00:17:44;;;;;;;11.13;6.60;;;8.30;84.90;;;;;;5010422;28;20633;-74
2023/10/18 00:20:16;;;;;;;10.27;6.63;;;8.30;85.00;;;;;;5024007;28;20519;-73
2023/10/18 00:22:44;;;;;;;11.35;6.55;;;8.20;84.90;;;;;;5018367;28;20025;-74
2023/10/18 00:25:11;;;;;;;12.07;7.05;;;8.30;85.10;;;;;;5017508;28;20037;-74
2023/10/18 00:27:45;;;;;;;12.48;7.03;;;8.20;85.10;;;;;;5020142;28;20030;-77
2023/10/18 00:30:11;;;;;;;13.35;6.97;;;8.30;85.10;;;;;;5018947;28;20021;-74
2023/10/18 00:32:38;;;;;;;10.13;6.85;;;8.20;85.10;;;;;;5017184;28;20410;-72
2023/10/18 00:35:21;;;;;;;11.48;6.95;;;8.30;85.20;;;;;;5021916;28;20037;-73
2023/10/18 00:37:54;;;;;;;10.50;6.88;;;8.20;85.30;;;;;;5020642;28;20379;-73
2023/10/18 00:43:22;;;;;;;11.43;7.10;;;8.30;85.30;;;;;;5019256;28;20037;-76
2023/10/18 00:45:50;;;;;;;10.40;7.03;;;8.20;85.30;;;;;;5022030;28;20100;-73
2023/10/18 00:48:19;;;;;;;10.77;6.93;;;8.20;85.40;;;;;;5022818;28;20100;-72
2023/10/18 00:50:48;;;;;;;10.00;6.40;;;8.20;85.50;;;;;;5018604;28;20052;-79
2023/10/18 00:53:19;;;;;;;13.80;7.47;;;8.20;85.50;;;;;;5014970;28;20113;-77
2023/10/18 00:56:04;;;;;;;9.85;6.75;;;8.20;85.70;;;;;;5017203;28;20056;-72
2023/10/18 00:58:31;;;;;;;;;;;8.20;85.60;;;;;;5027187;28;20171;-74
2023/10/18 01:00:58;;;;;;;12.25;7.18;;;8.20;85.70;;;;;;5019934;28;20028;-73
2023/10/18 01:03:36;;;;;;;10.23;6.63;;;8.20;85.60;;;;;;5017659;28;20026;-76
2023/10/18 01:06:08;;;;;;;10.52;6.50;;;8.20;85.70;;;;;;5024299;28;20403;-76
2023/10/18 01:08:37;;;;;;;10.35;6.60;;;8.20;85.60;;;;;;5021776;28;20029;-75
2023/10/18 01:11:08;;;;;;;14.10;7.43;;;8.30;85.80;;;;;;5021807;28;20679;-75
2023/10/18 01:13:40;;;;;;;10.25;6.75;;;8.20;85.90;;;;;;5018725;28;20063;-73
2023/10/18 01:16:14;;;;;;;13.38;7.30;;;8.10;85.90;;;;;;5017395;28;20496;-76
2023/10/18 01:18:43;;;;;;;10.77;7.03;;;8.10;86.10;;;;;;5021305;28;20112;-75
2023/10/18 01:21:13;;;;;;;10.30;6.82;;;8.10;86.10;;;;;;5024697;28;20837;-74
2023/10/18 01:23:41;;;;;;;12.00;7.30;;;8.10;86.00;;;;;;5022556;28;20028;-73
2023/10/18 01:26:08;;;;;;;11.90;6.90;;;8.10;86.10;;;;;;5020540;28;20167;-73
2023/10/18 01:28:34;;;;;;;12.52;7.82;;;8.20;86.20;;;;;;5018294;28;20293;-73
2023/10/18 01:30:59;;;;;;;10.93;7.57;;;8.10;86.30;;;;;;5023911;28;20049;-73
2023/10/18 01:33:26;;;;;;;12.73;6.97;;;8.10;86.20;;;;;;5020370;28;20033;-76
2023/10/18 01:35:53;;;;;;;12.43;7.38;;;8.10;86.10;;;;;;5021267;28;20028;-75
2023/10/18 01:38:23;;;;;;;14.05;7.63;;;8.10;86.20;;;;;;5022668;28;20028;-75
2023/10/18 01:40:52;;;;;;;14.82;9.10;;;8.10;86.40;;;;;;5024989;28;20048;-74
2023/10/18 01:43:19;;;;;;;17.63;9.73;;;8.10;86.40;;;;;;5024601;28;20112;-72
2023/10/18 01:45:48;;;;;;;16.55;10.88;;;8.10;86.40;;;;;;5018331;28;20560;-73
2023/10/18 01:48:17;;;;;;;21.33;11.88;;;8.10;86.40;;;;;;5020967;28;20432;-77
2023/10/18 01:50:44;;;;;;;21.65;13.20;;;8.10;86.40;;;;;;5023800;28;20029;-77
2023/10/18 01:53:15;;;;;;;24.30;15.55;;;8.10;86.40;;;;;;5020299;28;20075;-73
2023/10/18 01:55:52;;;;;;;27.88;15.75;;;8.10;86.30;;;;;;5020662;28;20061;-74
2023/10/18 01:58:23;;;;;;;25.30;16.63;;;8.10;86.40;;;;;;5019569;28;20408;-73
2023/10/18 02:00:49;;;;;;;28.85;20.35;;;8.10;86.40;;;;;;5023050;28;20124;-72
2023/10/18 02:03:15;;;;;;;37.20;20.10;;;8.10;86.40;;;;;;5017108;28;20037;-76
2023/10/18 02:05:46;;;;;;;36.83;23.08;;;8.10;86.50;;;;;;5010795;28;20054;-73
2023/10/18 02:08:12;;;;;;;34.47;22.48;;;8.10;86.50;;;;;;5016450;28;20033;-72
2023/10/18 02:10:42;;;;;;;33.40;22.13;;;8.10;86.60;;;;;;5022683;28;20029;-72
2023/10/18 02:13:13;;;;;;;31.52;21.63;;;8.00;86.60;;;;;;5022015;28;20020;-72
2023/10/18 02:15:40;;;;;;;34.17;22.30;;;8.10;86.70;;;;;;5015961;28;20606;-73
2023/10/18 02:18:09;;;;;;;33.53;21.80;;;8.00;86.70;;;;;;5017614;28;20028;-76
2023/10/18 02:20:39;;;;;;;30.20;20.88;;;8.00;86.70;;;;;;5024297;28;20112;-74
2023/10/18 02:23:11;;;;;;;29.48;19.10;;;8.00;86.80;;;;;;5020528;28;20731;-73
2023/10/18 02:25:43;;;;;;;31.30;20.15;;;8.10;86.80;;;;;;5017934;28;20085;-73
2023/10/18 02:28:22;;;;;;;25.05;17.83;;;8.00;86.80;;;;;;5018906;28;20029;-76
2023/10/18 02:30:56;;;;;;;22.63;15.77;;;8.00;86.90;;;;;;5014729;28;20037;-77
2023/10/18 02:33:38;;;;;;;23.30;16.17;;;8.00;86.90;;;;;;5016592;28;20377;-78
2023/10/18 02:36:11;;;;;;;20.63;13.38;;;8.00;86.90;;;;;;5019819;28;20034;-73
2023/10/18 02:38:41;;;;;;;18.48;13.23;;;8.00;87.00;;;;;;5016337;28;20018;-74
2023/10/18 02:41:26;;;;;;;17.13;12.30;;;7.90;87.10;;;;;;5021186;28;20395;-75
2023/10/18 02:43:52;;;;;;;18.95;12.27;;;7.90;87.00;;;;;;5015278;28;20116;-78
2023/10/18 02:46:25;;;;;;;16.25;10.68;;;7.90;87.10;;;;;;5015508;28;20799;-74
2023/10/18 02:48:52;;;;;;;15.52;10.00;;;7.90;87.20;;;;;;5022792;28;20040;-72
2023/10/18 02:51:24;;;;;;;15.27;9.60;;;7.90;87.30;;;;;;5018097;28;20141;-72
2023/10/18 02:53:52;;;;;;;13.98;9.30;;;7.90;87.20;;;;;;5022339;28;20014;-77
2023/10/18 02:56:22;;;;;;;14.13;8.63;;;7.90;87.20;;;;;;5019186;28;20322;-73
2023/10/18 02:58:49;;;;;;;12.65;8.48;;;7.90;87.20;;;;;;5019396;28;20499;-73
2023/10/18 03:01:19;;;;;;;10.73;8.02;;;7.90;87.20;;;;;;5014904;28;20045;-74
2023/10/18 03:03:54;;;;;;;10.20;7.55;;;7.90;87.30;;;;;;5020692;28;20029;-74
2023/10/18 03:06:24;;;;;;;11.30;7.60;;;7.90;87.40;;;;;;5018565;28;20128;-75
2023/10/18 03:08:50;;;;;;;11.23;7.97;;;7.90;87.40;;;;;;5020131;28;20053;-76
2023/10/18 03:11:21;;;;;;;13.32;8.07;;;7.90;87.40;;;;;;5019209;28;20042;-73
2023/10/18 03:13:48;;;;;;;14.10;8.13;;;7.90;87.50;;;;;;5024066;28;20047;-74
2023/10/18 03:18:44;;;;;;;12.40;7.72;;;7.80;87.50;;;;;;5017765;28;20045;-75
2023/10/18 03:21:20;;;;;;;12.50;8.27;;;7.80;87.60;;;;;;5015995;28;20068;-74
2023/10/18 03:23:50;;;;;;;11.75;7.20;;;7.80;87.50;;;;;;5016896;28;20088;-75
2023/10/18 03:26:21;;;;;;;10.75;7.57;;;7.90;87.70;;;;;;5019042;28;20044;-74
2023/10/18 03:28:47;;;;;;;12.90;7.28;;;7.80;87.70;;;;;;5017401;28;20064;-73
2023/10/18 03:31:22;;;;;;;10.35;7.80;;;7.80;87.80;;;;;;5021397;28;20087;-75
2023/10/18 03:33:52;;;;;;;11.48;7.30;;;7.80;87.80;;;;;;5016270;28;20456;-76
2023/10/18 03:36:20;;;;;;;12.20;7.60;;;7.80;87.80;;;;;;5018606;28;20495;-74
2023/10/18 03:39:00;;;;;;;11.80;7.00;;;7.90;87.80;;;;;;5021161;28;20468;-74
2023/10/18 03:41:32;;;;;;;12.82;7.70;;;7.80;87.80;;;;;;5020131;28;20025;-74
2023/10/18 03:44:07;;;;;;;9.98;7.05;;;7.80;87.80;;;;;;5023897;28;20053;-77
2023/10/18 03:46:49;;;;;;;11.07;7.30;;;7.90;87.70;;;;;;5014305;28;20046;-73
2023/10/18 03:49:24;;;;;;;12.95;7.25;;;7.80;87.80;;;;;;5021726;28;20022;-74
2023/10/18 03:51:53;;;;;;;13.20;7.90;;;7.90;87.90;;;;;;5017841;28;20045;-78
2023/10/18 03:54:20;;;;;;;13.25;8.07;;;7.80;87.80;;;;;;5023242;28;20021;-75
2023/10/18 03:56:51;;;;;;;11.15;7.55;;;7.80;87.80;;;;;;5020382;28;20065;-77
2023/10/18 03:59:25;;;;;;;12.65;7.38;;;7.80;87.90;;;;;;5014618;28;20067;-73
2023/10/18 04:02:07;;;;;;;11.32;6.85;;;7.80;87.90;;;;;;5019041;28;20038;-73
2023/10/18 04:04:35;;;;;;;12.85;7.70;;;7.80;88.10;;;;;;5017841;28;20032;-72
2023/10/18 04:07:20;;;;;;;10.90;7.65;;;7.90;88.00;;;;;;5017246;28;20031;-74
2023/10/18 04:12:27;;;;;;;11.55;7.20;;;7.90;87.90;;;;;;5020152;28;20061;-73
2023/10/18 04:14:56;;;;;;;11.57;7.65;;;8.00;87.70;;;;;;5016150;28;20092;-72
2023/10/18 04:20:07;;;;;;;12.10;7.40;;;8.00;87.70;;;;;;5018526;28;20707;-76
2023/10/18 04:22:33;;;;;;;10.93;7.10;;;8.00;87.90;;;;;;5021701;28;20051;-72
2023/10/18 04:24:58;;;;;;;13.52;8.10;;;8.00;87.80;;;;;;5017289;28;20042;-73
2023/10/18 04:27:24;;;;;;;12.50;7.93;;;8.00;87.80;;;;;;5019020;28;20338;-77
2023/10/18 04:29:55;;;;;;;12.80;7.82;;;7.90;87.90;;;;;;5018624;28;20033;-77
2023/10/18 04:32:23;;;;;;;10.50;7.35;;;8.00;88.00;;;;;;5015273;28;20387;-75
2023/10/18 04:34:48;;;;;;;13.00;7.35;;;8.00;87.80;;;;;;5014743;28;20057;-74
2023/10/18 04:37:14;;;;;;;11.25;7.10;;;8.00;87.80;;;;;;5018106;28;20099;-77
2023/10/18 04:39:40;;;;;;;11.73;7.22;;;8.00;87.80;;;;;;5010779;28;20073;-73
2023/10/18 04:42:08;;;;;;;11.90;7.22;;;8.00;87.80;;;;;;5011670;28;20072;-76
2023/10/18 04:44:37;;;;;;;12.80;7.32;;;8.00;87.80;;;;;;5015357;28;20072;-73
2023/10/18 04:47:04;;;;;;;12.70;7.50;;;8.10;87.60;;;;;;5017696;28;20017;-74
2023/10/18 04:49:39;;;;;;;12.45;7.88;;;8.00;87.60;;;;;;5022929;28;20071;-75
2023/10/18 04:52:08;;;;;;;;;;;8.10;87.60;;;;;;5021292;28;20114;-75
2023/10/18 04:54:38;;;;;;;12.02;7.38;;;8.10;87.60;;;;;;5017575;28;20291;-73
2023/10/18 04:57:11;;;;;;;13.07;7.63;;;8.00;87.70;;;;;;5015860;28;20555;-71
2023/10/18 04:59:46;;;;;;;11.90;7.78;;;8.00;87.70;;;;;;5022203;28;20472;-73
2023/10/18 05:02:23;;;;;;;10.00;7.20;;;8.00;87.80;;;;;;5014722;28;20049;-73
2023/10/18 05:04:49;;;;;;;11.52;8.13;;;8.00;87.80;;;;;;5017311;28;20068;-75
2023/10/18 05:07:18;;;;;;;11.32;7.55;;;8.10;87.90;;;;;;5010982;28;20490;-75
2023/10/18 05:09:44;;;;;;;12.80;7.32;;;8.00;87.90;;;;;;5005932;28;20731;-76
2023/10/18 05:14:53;;;;;;;13.57;8.35;;;8.10;87.70;;;;;;5009624;28;20046;-76
2023/10/18 05:17:23;;;;;;;10.70;7.38;;;8.10;87.60;;;;;;5011870;28;20033;-76
2023/10/18 05:19:50;;;;;;;10.75;6.95;;;8.10;87.80;;;;;;5010659;28;20207;-76
2023/10/18 05:22:23;;;;;;;10.45;6.63;;;8.10;87.70;;;;;;5009776;28;20395;-72
2023/10/18 05:24:55;;;;;;;12.38;7.05;;;8.10;87.70;;;;;;5012492;28;20037;-72
2023/10/18 05:27:24;;;;;;;11.55;7.95;;;8.10;87.70;;;;;;5009086;28;20427;-75
2023/10/18 05:29:59;;;;;;;11.52;7.40;;;8.10;87.70;;;;;;5018477;28;20170;-76
2023/10/18 05:35:19;;;;;;;;;;;8.10;87.70;;;;;;5017868;28;20574;-75
2023/10/18 05:37:50;;;;;;;13.43;7.32;;;8.10;87.80;;;;;;5022333;28;19920;-75
2023/10/18 05:43:03;;;;;;;;;;;8.00;87.70;;;;;;5017512;28;20036;-76
2023/10/18 05:45:31;;;;;;;11.18;7.13;;;8.00;87.80;;;;;;5017824;28;19925;-73
2023/10/18 05:47:58;;;;;;;10.90;7.25;;;8.00;87.80;;;;;;5019778;28;21641;-75
2023/10/18 05:50:24;;;;;;;10.88;7.60;;;8.00;87.90;;;;;;5017924;28;20029;-73
2023/10/18 05:52:57;;;;;;;12.27;7.35;;;8.00;87.80;;;;;;5015923;28;20793;-73
2023/10/18 05:55:23;;;;;;;10.52;6.53;;;8.00;87.80;;;;;;5014095;28;20042;-75
2023/10/18 05:57:50;;;;;;;10.82;7.47;;;8.00;87.80;;;;;;5022678;28;20626;-76
2023/10/18 06:00:19;;;;;;;10.70;7.35;;;7.90;88.00;;;;;;5018422;28;20842;-72
2023/10/18 06:02:45;;;;;;;11.57;7.15;;;7.90;88.00;;;;;;5016124;28;20357;-74
2023/10/18 06:05:11;;;;;;;9.52;6.78;;;7.90;88.00;;;;;;5022653;28;20124;-76
2023/10/18 06:07:37;;;;;;;13.30;7.20;;;7.80;88.00;;;;;;5018096;28;20870;-73
2023/10/18 06:10:24;;;;;;;12.68;7.03;;;7.90;88.10;;;;;;5019784;28;20090;-73
2023/10/18 06:12:55;;;;;;;11.05;7.40;;;7.90;88.20;;;;;;5022303;28;20041;-74
2023/10/18 06:15:34;;;;;;;13.20;7.80;;;7.80;88.20;;;;;;5018504;28;20037;-72
2023/10/18 06:18:00;;;;;;;11.10;7.50;;;7.80;88.30;;;;;;5022808;28;20396;-72
2023/10/18 06:20:29;;;;;;;10.70;7.10;;;7.80;88.20;;;;;;5019958;28;20033;-73
2023/10/18 06:23:39;;;;;;;10.00;7.03;;;7.80;88.10;;;;;;5021692;28;20026;-72
2023/10/18 06:25:49;;;;;;;12.20;7.68;;;7.90;88.20;;;;;;5012850;28;20033;-73
2023/10/18 06:28:20;;;;;;;10.70;7.50;;;7.80;88.30;;;;;;5021085;28;20144;-73
2023/10/18 06:30:50;;;;;;;10.77;7.30;;;7.80;88.40;;;;;;5020302;28;20037;-72
2023/10/18 06:33:19;;;;;;;10.95;7.30;;;7.80;88.50;;;;;;5017877;28;20033;-73
2023/10/18 06:35:51;;;;;;;12.20;7.13;;;7.80;88.40;;;;;;5018750;28;20248;-73
2023/10/18 06:38:24;;;;;;;11.05;7.15;;;7.90;88.50;;;;;;5019264;28;20035;-72
2023/10/18 06:41:00;;;;;;;11.30;6.90;;;7.90;88.50;;;;;;5014816;28;20076;-72
2023/10/18 06:43:26;;;;;;;12.20;7.70;;;7.90;88.40;;;;;;5017822;28;20021;-72
2023/10/18 06:45:53;;;;;;;11.52;7.28;;;7.90;88.30;;;;;;5016150;28;20041;-70
2023/10/18 06:48:26;;;;;;;12.88;7.20;;;8.00;88.40;;;;;;5015186;28;20026;-71
2023/10/18 06:50:53;;;;;;;12.18;8.10;;;8.10;88.30;;;;;;5012887;28;20060;-71
2023/10/18 06:53:20;;;;;;;11.65;7.22;;;8.10;88.20;;;;;;5015621;28;20030;-70
2023/10/18 06:55:55;;;;;;;10.60;7.60;;;8.10;88.20;;;;;;5011149;28;20064;-72
2023/10/18 07:00:51;;;;;;;10.52;6.93;;;8.20;88.10;;;;;;5012362;28;20370;-71
2023/10/18 07:03:18;;;;;;;11.25;7.53;;;8.30;87.90;;;;;;5013067;28;20036;-73
2023/10/18 07:05:49;;;;;;;13.18;6.93;;;8.20;87.80;;;;;;5012307;28;20040;-72
2023/10/18 07:08:29;;;;;;;12.70;7.03;;;8.30;87.70;;;;;;5010417;28;20038;-71
2023/10/18 07:10:55;;;;;;;12.70;7.40;;;8.40;87.60;;;;;;5013713;28;20385;-72
2023/10/18 07:13:32;;;;;;;11.35;7.65;;;8.40;87.60;;;;;;5014081;28;20782;-70
2023/10/18 07:16:11;;;;;;;12.40;7.90;;;8.50;87.50;;;;;;5010367;28;20102;-72
2023/10/18 07:18:38;;;;;;;12.38;7.38;;;8.50;87.10;;;;;;5012702;28;20040;-70
2023/10/18 07:21:08;;;;;;;12.60;7.72;;;8.60;87.10;;;;;;5010817;28;20638;-70
2023/10/18 07:23:37;;;;;;;11.10;7.30;;;8.60;87.10;;;;;;5013394;28;20079;-71
2023/10/18 07:26:15;;;;;;;10.93;6.75;;;8.60;87.00;;;;;;5013212;28;20046;-72
2023/10/18 07:28:43;;;;;;;11.02;6.97;;;8.70;86.80;;;;;;5015202;28;20091;-70
2023/10/18 07:31:10;;;;;;;11.48;7.85;;;8.70;86.70;;;;;;5015780;28;20534;-70
2023/10/18 07:33:43;;;;;;;12.27;7.32;;;8.80;86.60;;;;;;5015346;28;20832;-72
2023/10/18 07:36:11;;;;;;;11.80;7.85;;;8.90;86.40;;;;;;5015927;28;20499;-72
2023/10/18 07:38:38;;;;;;;10.93;6.72;;;8.90;86.50;;;;;;5021341;28;20752;-72
2023/10/18 07:41:07;;;;;;;10.02;6.95;;;9.00;86.20;;;;;;5022041;28;20200;-71
2023/10/18 07:43:33;;;;;;;11.85;7.20;;;9.10;86.00;;;;;;5012123;28;20032;-72
2023/10/18 07:46:05;;;;;;;11.48;7.18;;;9.10;85.90;;;;;;5018176;28;20085;-71
2023/10/18 07:48:31;;;;;;;12.25;7.53;;;9.10;85.70;;;;;;5018166;28;20057;-71
2023/10/18 07:50:58;;;;;;;12.05;7.28;;;9.10;85.90;;;;;;5022582;28;20525;-74
2023/10/18 07:53:24;;;;;;;13.98;7.20;;;9.10;85.80;;;;;;5021657;28;20030;-71
2023/10/18 07:55:57;;;;;;;10.52;6.85;;;9.30;85.70;;;;;;5018323;28;20044;-73
2023/10/18 07:58:24;;;;;;;12.40;6.90;;;9.40;85.70;;;;;;5021101;28;20081;-71
2023/10/18 08:03:32;;;;;;;11.10;6.70;;;9.50;85.50;;;;;;5013827;28;20044;-72
2023/10/18 08:05:59;;;;;;;11.80;7.20;;;9.60;85.60;;;;;;5016564;28;20037;-70
2023/10/18 08:08:25;;;;;;;10.25;6.97;;;9.70;85.20;;;;;;5018590;28;20108;-70
2023/10/18 08:10:55;;;;;;;11.73;8.15;;;9.80;84.80;;;;;;5019813;28;20036;-73
2023/10/18 08:13:27;;;;;;;12.80;6.93;;;9.90;84.90;;;;;;5016372;28;20578;-71
2023/10/18 08:15:54;;;;;;;10.40;6.97;;;10.10;84.70;;;;;;5007757;28;20033;-71
2023/10/18 08:19:07;;;;;;;10.90;7.28;;;10.40;83.90;;;;;;5016134;28;20539;-70
2023/10/18 08:21:06;;;;;;;12.82;7.75;;;10.60;83.20;;;;;;5007083;28;20834;-70
2023/10/18 08:26:04;;;;;;;11.25;6.78;;;11.00;82.10;;;;;;5024816;28;20053;-70
2023/10/18 08:28:40;;;;;;;11.15;6.40;;;11.20;81.70;;;;;;5014832;28;20045;-70
2023/10/18 08:31:15;;;;;;;9.73;6.95;;;11.30;81.30;;;;;;5018898;28;20041;-74
2023/10/18 08:33:42;;;;;;;10.68;7.18;;;11.30;80.90;;;;;;5024076;28;20029;-72
2023/10/18 08:36:13;;;;;;;10.20;6.63;;;11.50;80.90;;;;;;5022238;28;20575;-72
2023/10/18 08:38:43;;;;;;;11.98;6.53;;;11.60;80.70;;;;;;5017963;28;20075;-74
2023/10/18 08:41:15;;;;;;;11.85;6.82;;;11.90;79.80;;;;;;5024059;28;20431;-71
2023/10/18 08:44:16;;;;;;;12.38;6.25;;;12.10;78.90;;;;;;5020262;28;20439;-72
2023/10/18 08:46:43;;;;;;;11.00;6.85;;;12.30;78.20;;;;;;5006875;28;20069;-70
2023/10/18 08:49:13;;;;;;;10.88;6.35;;;12.40;78.20;;;;;;5026247;28;20491;-72
2023/10/18 08:51:45;;;;;;;9.93;6.80;;;12.50;78.60;;;;;;5021945;28;20058;-71
2023/10/18 08:54:22;;;;;;;10.70;6.22;;;12.60;78.00;;;;;;5025507;28;20025;-70
2023/10/18 08:56:49;;;;;;;10.93;6.32;;;12.70;78.00;;;;;;5017783;28;20054;-70
2023/10/18 08:59:20;;;;;;;10.98;6.25;;;12.60;77.40;;;;;;5023516;28;20045;-73
2023/10/18 09:04:35;;;;;;;10.95;6.30;;;13.10;77.20;;;;;;5021903;28;20049;-72
2023/10/18 09:09:57;;;;;;;11.98;6.97;;;13.60;76.00;;;;;;5021395;28;20041;-72
2023/10/18 09:15:28;;;;;;;10.38;6.15;;;13.80;75.10;;;;;;5017917;28;20038;-72
2023/10/18 09:18:00;;;;;;;10.40;6.28;;;13.80;75.00;;;;;;5018398;28;20025;-73
2023/10/18 09:20:26;;;;;;;12.18;6.43;;;13.70;75.60;;;;;;5017953;28;20120;-72
2023/10/18 09:22:53;;;;;;;10.40;6.90;;;13.90;75.80;;;;;;5020541;28;20029;-72
2023/10/18 09:25:24;;;;;;;12.85;6.38;;;14.10;75.50;;;;;;5014603;28;20398;-70
2023/10/18 09:28:06;;;;;;;11.27;6.68;;;14.10;74.30;;;;;;5012038;28;20277;-72
2023/10/18 09:30:35;;;;;;;11.32;6.10;;;14.20;74.60;;;;;;5014529;28;20053;-71
2023/10/18 09:33:01;;;;;;;12.60;5.70;;;14.50;74.20;;;;;;5018458;28;20033;-72
2023/10/18 09:35:27;;;;;;;10.43;5.93;;;14.60;73.90;;;;;;5019828;28;20532;-71
2023/10/18 09:37:54;;;;;;;12.50;5.88;;;14.60;73.70;;;;;;5023127;28;20160;-70
2023/10/18 09:40:20;;;;;;;9.68;6.22;;;14.70;73.40;;;;;;5018054;28;20198;-73
2023/10/18 09:42:46;;;;;;;11.93;6.00;;;14.90;73.20;;;;;;5024113;28;20036;-72
2023/10/18 09:45:14;;;;;;;8.23;5.38;;;14.90;72.60;;;;;;5016734;28;20045;-71
2023/10/18 09:47:41;;;;;;;10.85;5.70;;;15.10;72.60;;;;;;5025058;28;20018;-73
2023/10/18 09:50:08;;;;;;;9.73;5.68;;;15.00;73.20;;;;;;5018307;28;20725;-71
2023/10/18 09:52:47;;;;;;;12.40;5.32;;;15.10;73.10;;;;;;5023140;28;20361;-71
2023/10/18 09:55:17;;;;;;;9.07;5.50;;;15.10;73.10;;;;;;5016982;28;20068;-70
2023/10/18 09:57:49;;;;;;;8.55;5.50;;;15.00;73.20;;;;;;5019596;28;20086;-72
2023/10/18 10:00:16;;;;;;;8.55;5.43;;;14.90;73.40;;;;;;5017819;28;20148;-73
2023/10/18 10:02:52;;;;;;;8.82;4.93;;;14.90;73.10;;;;;;5020873;28;20041;-71
2023/10/18 10:05:26;;;;;;;9.55;5.30;;;15.10;73.50;;;;;;5019275;28;20123;-71
2023/10/18 10:07:55;;;;;;;13.05;5.90;;;15.50;73.00;;;;;;5024974;28;20025;-71
2023/10/18 10:10:24;;;;;;;10.20;5.07;;;15.50;72.10;;;;;;5020177;28;20081;-74
2023/10/18 10:12:57;;;;;;;9.07;4.70;;;15.40;72.20;;;;;;5022051;28;20026;-72
2023/10/18 10:15:28;;;;;;;10.73;4.90;;;15.20;72.50;;;;;;5021059;28;20099;-72
2023/10/18 10:18:00;;;;;;;9.43;4.60;;;15.10;72.90;;;;;;5017377;28;20022;-72
2023/10/18 10:20:32;;;;;;;14.05;5.30;;;15.10;72.90;;;;;;5018586;28;20026;-70
2023/10/18 10:23:04;;;;;;;10.15;5.07;;;15.10;73.10;;;;;;5019998;28;20032;-72
2023/10/18 10:25:32;;;;;;;8.32;4.40;;;15.10;73.00;;;;;;5020852;28;20041;-73
2023/10/18 10:28:14;;;;;;;9.13;4.93;;;15.30;73.50;;;;;;5014032;28;20029;-72
2023/10/18 10:30:43;;;;;;;10.07;5.40;;;15.40;74.00;;;;;;5009846;28;20050;-72
2023/10/18 10:33:12;;;;;;;10.73;6.07;;;15.50;73.00;;;;;;5014505;28;20136;-73
2023/10/18 10:35:44;;;;;;;8.93;4.88;;;15.60;72.30;;;;;;5012792;28;20044;-72
2023/10/18 10:38:13;;;;;;;10.75;4.68;;;15.50;72.30;;;;;;5012138;28;20026;-73
2023/10/18 10:40:48;;;;;;;11.25;5.03;;;15.50;72.30;;;;;;5012580;28;20116;-70
2023/10/18 10:43:13;;;;;;;;;;;15.40;72.30;;;;;;5010211;28;20034;-72
2023/10/18 10:50:52;;;;;;;7.97;4.88;;;15.30;73.50;;;;;;5014888;28;20046;-73
2023/10/18 10:53:34;;;;;;;9.77;5.32;;;15.40;73.80;;;;;;5015485;28;20464;-72
2023/10/18 10:56:26;;;;;;;11.75;5.00;;;15.60;73.80;;;;;;5011636;28;20044;-72
2023/10/18 10:59:03;;;;;;;8.82;4.25;;;15.80;73.30;;;;;;5003964;28;20491;-72
2023/10/18 11:02:08;;;;;;;8.63;4.88;;;15.90;73.20;;;;;;5014299;28;20033;-71
2023/10/18 11:04:46;;;;;;;11.05;5.10;;;16.20;73.40;;;;;;5009672;28;20611;-71
2023/10/18 11:07:13;;;;;;;7.80;4.47;;;16.20;73.00;;;;;;5010801;28;20121;-71
2023/10/18 11:09:42;;;;;;;9.85;4.55;;;16.30;72.80;;;;;;5010202;28;20025;-73
2023/10/18 11:12:17;;;;;;;9.07;4.40;;;16.40;71.70;;;;;;5012851;28;20034;-72
2023/10/18 11:14:43;;;;;;;13.30;4.65;;;16.40;72.50;;;;;;5016116;28;21929;-70
2023/10/18 11:19:43;;;;;;;12.93;4.72;;;16.30;72.10;;;;;;5011685;28;20102;-72
2023/10/18 11:22:22;;;;;;;10.40;4.93;;;16.40;72.10;;;;;;5017701;28;20763;-70
2023/10/18 11:24:52;;;;;;;9.10;4.25;;;16.50;72.90;;;;;;5013947;28;20025;-71
2023/10/18 11:27:21;;;;;;;8.73;4.60;;;16.50;72.60;;;;;;5019250;28;20064;-73
2023/10/18 11:29:52;;;;;;;9.95;4.13;;;16.50;72.30;;;;;;5012412;28;20037;-70
2023/10/18 11:32:20;;;;;;;8.88;4.50;;;16.40;72.30;;;;;;5018029;28;20220;-73
2023/10/18 11:34:46;;;;;;;11.82;4.20;;;16.40;72.60;;;;;;5017921;28;20041;-74
2023/10/18 11:37:34;;;;;;;9.02;3.88;;;16.40;73.00;;;;;;5011119;28;20065;-71
2023/10/18 11:40:25;;;;;;;8.43;3.90;;;16.40;72.30;;;;;;5013237;28;20069;-73
2023/10/18 11:43:05;;;;;;;7.40;4.40;;;16.50;72.70;;;;;;5019270;28;20025;-71
2023/10/18 11:45:36;;;;;;;9.25;4.70;;;16.60;72.40;;;;;;5016144;28;20108;-72
2023/10/18 11:48:06;;;;;;;8.75;4.30;;;16.50;72.10;;;;;;5012988;28;20049;-75
2023/10/18 11:50:47;;;;;;;8.40;4.10;;;16.50;72.80;;;;;;5013419;28;20531;-73
2023/10/18 11:53:14;;;;;;;9.07;4.40;;;16.60;72.20;;;;;;5003634;28;20119;-75
2023/10/18 11:55:58;;;;;;;7.18;4.10;;;16.70;72.20;;;;;;5018859;28;20056;-75
2023/10/18 11:58:26;;;;;;;9.77;4.40;;;16.80;72.20;;;;;;5016794;28;20721;-71
2023/10/18 12:01:01;;;;;;;7.97;4.10;;;16.90;72.20;;;;;;5014322;28;20037;-71
2023/10/18 12:03:29;;;;;;;9.45;4.40;;;17.10;71.70;;;;;;5011631;28;20029;-71
2023/10/18 12:05:59;;;;;;;7.95;3.35;;;17.20;72.40;;;;;;5015061;28;20053;-74
2023/10/18 12:08:25;;;;;;;9.32;4.32;;;17.30;71.90;;;;;;5015944;28;20042;-71
2023/10/18 12:10:54;;;;;;;9.10;4.18;;;17.50;71.80;;;;;;5016198;28;20045;-71
2023/10/18 12:13:20;;;;;;;7.80;3.92;;;17.50;71.30;;;;;;5021253;28;20041;-71
2023/10/18 12:15:47;;;;;;;7.47;4.00;;;17.60;71.30;;;;;;5016151;28;20061;-70
2023/10/18 12:18:17;;;;;;;7.75;3.63;;;17.60;70.50;;;;;;5013704;28;20172;-70
2023/10/18 12:20:43;;;;;;;8.63;4.65;;;17.50;71.70;;;;;;5023063;28;20029;-74
2023/10/18 12:23:10;;;;;;;8.45;4.70;;;17.50;71.60;;;;;;5016479;28;20065;-72
2023/10/18 12:25:46;;;;;;;9.05;4.20;;;17.70;71.10;;;;;;5020084;28;20041;-73
2023/10/18 12:28:13;;;;;;;9.40;4.03;;;17.80;70.90;;;;;;5009261;28;20109;-72
2023/10/18 12:30:43;;;;;;;8.02;3.58;;;17.90;71.00;;;;;;5016834;28;20038;-76
2023/10/18 12:33:19;;;;;;;8.48;3.90;;;17.90;70.40;;;;;;5014685;28;20369;-75
2023/10/18 12:35:48;;;;;;;10.27;4.32;;;17.90;71.10;;;;;;5019605;28;20041;-73
2023/10/18 12:38:15;;;;;;;10.60;4.30;;;17.80;71.30;;;;;;5018942;28;20155;-74
2023/10/18 12:40:58;;;;;;;11.75;4.15;;;17.90;71.30;;;;;;5019845;28;20447;-75
2023/10/18 12:43:25;;;;;;;7.63;3.50;;;17.90;71.30;;;;;;5012200;28;20488;-73
2023/10/18 12:45:51;;;;;;;8.63;3.95;;;17.90;71.10;;;;;;5015652;28;20064;-73
2023/10/18 12:48:27;;;;;;;6.88;3.55;;;17.90;71.40;;;;;;5018837;28;20025;-73
2023/10/18 12:50:54;;;;;;;13.27;4.30;;;17.80;72.30;;;;;;5017802;28;20029;-73
2023/10/18 12:56:33;;;;;;;9.80;4.25;;;17.80;71.90;;;;;;5013024;28;20046;-73
2023/10/18 12:58:47;;;;;;;10.80;4.22;;;17.80;71.90;;;;;;5010800;28;20052;-72
2023/10/18 13:01:14;;;;;;;7.43;3.75;;;17.70;72.20;;;;;;5020716;28;20113;-74
2023/10/18 13:03:56;;;;;;;9.43;3.85;;;17.80;71.80;;;;;;5021047;28;20109;-72
2023/10/18 13:06:30;;;;;;;8.60;4.18;;;17.60;72.00;;;;;;5020279;28;20053;-73
2023/10/18 13:09:21;;;;;;;8.60;3.92;;;17.70;72.70;;;;;;5020181;28;20886;-74
2023/10/18 13:14:39;;;;;;;8.20;4.55;;;17.60;72.10;;;;;;5016211;28;20033;-73
2023/10/18 13:17:10;;;;;;;10.13;4.22;;;17.50;72.50;;;;;;5004531;28;21272;-73
2023/10/18 13:19:42;;;;;;;9.10;4.80;;;17.50;72.60;;;;;;5009716;28;20025;-74
2023/10/18 13:22:18;;;;;;;7.93;4.13;;;17.60;73.10;;;;;;5016483;28;20041;-72
2023/10/18 13:24:45;;;;;;;9.43;3.97;;;17.50;72.70;;;;;;5008679;28;20404;-73
2023/10/18 13:27:17;;;;;;;7.55;3.38;;;17.60;73.10;;;;;;5012474;28;20033;-72
2023/10/18 13:29:48;;;;;;;9.68;4.50;;;17.50;73.30;;;;;;5004071;28;20034;-72
2023/10/18 13:32:15;;;;;;;8.05;3.97;;;17.60;73.40;;;;;;5012178;28;20022;-73
2023/10/18 13:34:43;;;;;;;9.15;3.75;;;17.60;73.70;;;;;;5014891;28;20147;-72
2023/10/18 13:37:14;;;;;;;10.35;4.63;;;17.60;73.70;;;;;;5012822;28;20065;-73
2023/10/18 13:39:42;;;;;;;9.65;4.68;;;17.60;73.70;;;;;;5014485;28;20018;-73
2023/10/18 13:42:11;;;;;;;10.10;4.57;;;17.50;73.70;;;;;;5021616;28;20059;-73
2023/10/18 13:44:37;;;;;;;9.35;4.63;;;17.50;74.10;;;;;;5021688;28;20045;-73
2023/10/18 13:47:07;;;;;;;8.93;4.15;;;17.40;74.30;;;;;;5021273;28;20952;-73
2023/10/18 13:49:34;;;;;;;8.90;3.58;;;17.40;74.40;;;;;;5019337;28;20463;-73
2023/10/18 13:52:00;;;;;;;9.60;3.97;;;17.40;74.30;;;;;;5021295;28;20033;-73